»·PEaware :: N102EF KRDD-KACV

N102EF :: KRDD-KACV

FLIGHT INFORMATION

Flight Status: Arrived
Operator: Privately registered:
United States
More flights under this callsign
Pilot: Ron R. (25532)
Aircraft: BEECH AIRCRAFT DUKE
(BE60)
More flights by this aircraft type
Origin: KRDD Redding Mun
United States
Destination: KACV Arcata
United States
More flights between these airports :: More routes between these airports
Route: KENDL4 TOMAD V195 YAGER
File this flight plan on PilotEdge
Remarks:
Altitude:
(Current/Filed)
10,000ft
Speed:
(Current/Filed)
230kts
Departed: 14-Aug-20 08:56 PM
Arrived: 14-Aug-20 09:29 PM
Distance/Time
Traveled:
87nm/0:33
Distance/Time
To Go:
Arrived

Flight Plot

Page will automatically refresh every two minutes.

Flight plan parsing failed; only flown route is shown


Map Options




Map Legend


Flown Route
Filed Route
Departure Airport
Arrival Airport
Navaid (VOR, NDB)
Fix

Horizontal Profiles

Position Reports

Time Latitude Longitude Heading Altitude Ground
Speed
14-Aug-20 20:29 40.508828 -122.298333 2 505ft 0kts
14-Aug-20 20:30 40.508828 -122.298333 2 505ft 0kts
14-Aug-20 20:31 40.508828 -122.298333 2 505ft 0kts
14-Aug-20 20:32 40.508828 -122.298333 2 505ft 0kts
14-Aug-20 20:33 40.508829 -122.298333 2 505ft 0kts
14-Aug-20 20:34 40.508832 -122.298333 2 505ft 0kts
14-Aug-20 20:35 40.508834 -122.298333 2 505ft 0kts
14-Aug-20 20:36 40.508836 -122.298333 2 505ft 0kts
14-Aug-20 20:37 40.508839 -122.298333 2 505ft 0kts
14-Aug-20 20:38 40.508841 -122.298333 2 505ft 0kts
14-Aug-20 20:39 40.508843 -122.298333 2 505ft 0kts
14-Aug-20 20:40 40.508846 -122.298332 2 505ft 0kts
14-Aug-20 20:41 40.508848 -122.298332 2 505ft 0kts
14-Aug-20 20:42 40.508850 -122.298332 2 505ft 0kts
14-Aug-20 20:43 40.508852 -122.298332 2 505ft 0kts
14-Aug-20 20:44 40.508855 -122.298332 2 505ft 0kts
14-Aug-20 20:45 40.508857 -122.298332 2 505ft 0kts
14-Aug-20 20:46 40.508859 -122.298332 2 505ft 0kts
14-Aug-20 20:47 40.508862 -122.298332 2 505ft 0kts
14-Aug-20 20:48 40.508864 -122.298331 2 505ft 0kts
14-Aug-20 20:49 40.509179 -122.298527 329 505ft 8kts
14-Aug-20 20:50 40.512166 -122.298549 1 505ft 12kts
14-Aug-20 20:51 40.515719 -122.297347 48 505ft 14kts
14-Aug-20 20:52 40.519322 -122.296237 1 505ft 14kts
14-Aug-20 20:53 40.520190 -122.295717 88 505ft 0kts
14-Aug-20 20:54 40.520192 -122.295613 88 505ft 4kts
14-Aug-20 20:55 40.504363 -122.294894 180 668ft 143kts
14-Aug-20 20:56 40.469758 -122.320230 264 2663ft 172kts
14-Aug-20 20:57 40.462688 -122.379147 212 4703ft 182kts
14-Aug-20 20:58 40.429131 -122.427208 238 6708ft 171kts
14-Aug-20 20:59 40.402981 -122.475013 231 8668ft 153kts
14-Aug-20 21:00 40.377736 -122.520739 234 10013ft 181kts
14-Aug-20 21:01 40.346362 -122.583692 234 10005ft 219kts
14-Aug-20 21:02 40.312126 -122.651043 234 10004ft 223kts
14-Aug-20 21:03 40.277596 -122.718734 234 10005ft 223kts
14-Aug-20 21:04 40.262228 -122.794186 289 10012ft 230kts
14-Aug-20 21:05 40.285843 -122.872161 289 10009ft 231kts
14-Aug-20 21:06 40.308648 -122.951017 288 10012ft 231kts
14-Aug-20 21:07 40.331458 -123.029952 288 10015ft 232kts
14-Aug-20 21:08 40.354335 -123.109318 288 10018ft 232kts
14-Aug-20 21:09 40.377148 -123.188704 288 10022ft 232kts
14-Aug-20 21:10 40.399930 -123.268211 288 10022ft 233kts
14-Aug-20 21:11 40.422744 -123.348116 288 9904ft 237kts
14-Aug-20 21:12 40.445084 -123.426620 289 8898ft 225kts
14-Aug-20 21:13 40.467187 -123.504139 289 8269ft 227kts
14-Aug-20 21:14 40.488858 -123.580364 289 8260ft 221kts
14-Aug-20 21:15 40.510206 -123.655945 289 8266ft 220kts
14-Aug-20 21:16 40.531460 -123.731461 289 8296ft 219kts
14-Aug-20 21:17 40.552719 -123.807190 291 8303ft 221kts
14-Aug-20 21:18 40.601772 -123.854107 333 7889ft 226kts
14-Aug-20 21:19 40.656994 -123.891176 332 6558ft 217kts
14-Aug-20 21:20 40.708687 -123.925954 332 5708ft 193kts
14-Aug-20 21:21 40.759234 -123.960136 332 4983ft 212kts
14-Aug-20 21:22 40.807944 -123.992914 332 3765ft 182kts
14-Aug-20 21:23 40.847545 -124.019927 332 2914ft 140kts
14-Aug-20 21:24 40.880932 -124.042365 333 2186ft 130kts
14-Aug-20 21:25 40.911734 -124.063211 332 1530ft 120kts
14-Aug-20 21:26 40.941005 -124.083061 332 908ft 115kts
14-Aug-20 21:27 40.968831 -124.101917 332 305ft 110kts
14-Aug-20 21:28 40.981481 -124.111561 212 221ft 9kts
14-Aug-20 21:29 40.978249 -124.109664 152 221ft 13kts
14-Aug-20 21:30 40.974668 -124.108572 180 221ft 12kts
14-Aug-20 21:31 40.973061 -124.107634 152 221ft 0kts
14-Aug-20 21:32 40.973060 -124.107634 152 221ft 0kts
14-Aug-20 21:33 40.973060 -124.107634 152 221ft 0kts
14-Aug-20 21:34 40.973060 -124.107634 152 221ft 0kts
14-Aug-20 21:35 40.973060 -124.107634 152 221ft 0kts
14-Aug-20 21:36 40.973060 -124.107634 152 221ft 0kts
14-Aug-20 21:37 40.973060 -124.107634 152 221ft 0kts
14-Aug-20 21:38 40.973060 -124.107634 152 221ft 0kts
14-Aug-20 21:39 40.973060 -124.107634 152 221ft 0kts
14-Aug-20 21:40 40.973060 -124.107634 152 221ft 0kts
14-Aug-20 21:41 40.973060 -124.107634 152 221ft 0kts
14-Aug-20 21:42 40.973060 -124.107634 152 221ft 0kts
14-Aug-20 21:43 40.973060 -124.107634 152 221ft 0kts

Navigation Log

Ident Type
Flight plan parsing failed, navigation log unavailable